Time;durP1;ratioP1;P1;durP2;ratioP2;P2;SDS_P1;SDS_P2;PMS_P1;PMS_P2;Temp;Humidity;BMP_temperature;BMP_pressure;BME280_temperature;BME280_humidity;BME280_pressure;Samples;Min_cycle;Max_cycle;Signal;HPM_P1;HPM_P2
2021/09/13 00:02:18;;;;;;;11.13;3.35;;;;;;;;;;5102396;28;20024;-75
2021/09/13 00:04:43;;;;;;;6.13;2.70;;;;;;;;;;5083681;28;20610;-76
2021/09/13 00:07:09;;;;;;;8.05;3.20;;;;;;;;;;5105317;28;20032;-75
2021/09/13 00:09:35;;;;;;;8.10;3.33;;;;;;;;;;5102740;28;20127;-76
2021/09/13 00:12:01;;;;;;;7.78;3.00;;;;;;;;;;5106626;27;20031;-76
2021/09/13 00:14:26;;;;;;;7.90;3.13;;;;;;;;;;5102841;28;20032;-76
2021/09/13 00:16:52;;;;;;;8.10;3.00;;;;;;;;;;5103827;28;20035;-76
2021/09/13 00:19:17;;;;;;;9.80;3.17;;;;;;;;;;5088445;28;20028;-75
2021/09/13 00:21:43;;;;;;;9.52;3.03;;;;;;;;;;5105360;28;20035;-76
2021/09/13 00:24:09;;;;;;;5.43;3.17;;;;;;;;;;5104520;28;20169;-75
2021/09/13 00:26:34;;;;;;;15.32;3.13;;;;;;;;;;5106510;28;20189;-75
2021/09/13 00:29:00;;;;;;;9.57;3.28;;;;;;;;;;5104905;28;20107;-76
2021/09/13 00:31:25;;;;;;;5.93;2.95;;;;;;;;;;5102457;28;20510;-75
2021/09/13 00:33:50;;;;;;;9.75;3.03;;;;;;;;;;5088894;28;20039;-75
2021/09/13 00:36:16;;;;;;;14.48;3.38;;;;;;;;;;5068090;28;20051;-75
2021/09/13 00:38:41;;;;;;;5.85;3.10;;;;;;;;;;5066203;28;20036;-75
2021/09/13 00:41:08;;;;;;;6.32;3.17;;;;;;;;;;5089009;28;20031;-76
2021/09/13 00:43:33;;;;;;;10.25;2.90;;;;;;;;;;5088728;28;20032;-76
2021/09/13 00:45:59;;;;;;;6.40;3.00;;;;;;;;;;5087737;28;20042;-76
2021/09/13 00:48:24;;;;;;;8.88;2.80;;;;;;;;;;5068726;28;20046;-76
2021/09/13 00:50:51;;;;;;;10.90;2.90;;;;;;;;;;5103115;28;20043;-76
2021/09/13 00:53:16;;;;;;;7.82;2.67;;;;;;;;;;5085696;28;20028;-76
2021/09/13 00:55:43;;;;;;;9.98;2.60;;;;;;;;;;5088108;28;20101;-75
2021/09/13 00:58:08;;;;;;;10.07;2.58;;;;;;;;;;5105520;28;20028;-76
2021/09/13 01:00:35;;;;;;;6.80;2.53;;;;;;;;;;5075560;28;20044;-76
2021/09/13 01:03:01;;;;;;;12.38;3.33;;;;;;;;;;5063978;28;20031;-76
2021/09/13 01:05:26;;;;;;;5.63;2.38;;;;;;;;;;5063330;28;20017;-76
2021/09/13 01:07:52;;;;;;;8.32;2.88;;;;;;;;;;5064976;28;20404;-76
2021/09/13 01:10:20;;;;;;;9.52;2.42;;;;;;;;;;5081154;28;20028;-76
2021/09/13 01:12:45;;;;;;;7.47;2.70;;;;;;;;;;5080830;28;20052;-76
2021/09/13 01:15:11;;;;;;;9.38;2.60;;;;;;;;;;5062884;28;20109;-76
2021/09/13 01:17:36;;;;;;;10.35;2.53;;;;;;;;;;5060586;28;20025;-75
2021/09/13 01:20:03;;;;;;;5.72;2.13;;;;;;;;;;5076207;28;20032;-76
2021/09/13 01:22:29;;;;;;;8.68;2.80;;;;;;;;;;5060286;28;20051;-76
2021/09/13 01:24:55;;;;;;;8.77;2.50;;;;;;;;;;5079842;28;20033;-76
2021/09/13 01:27:20;;;;;;;7.20;2.65;;;;;;;;;;5045262;28;20028;-76
2021/09/13 01:29:46;;;;;;;9.13;2.33;;;;;;;;;;5063826;28;20033;-76
2021/09/13 01:32:11;;;;;;;9.70;2.88;;;;;;;;;;5066110;28;20029;-76
2021/09/13 01:34:37;;;;;;;8.32;2.75;;;;;;;;;;5063321;28;20123;-76
2021/09/13 01:37:03;;;;;;;6.57;2.90;;;;;;;;;;5079605;28;20028;-76
2021/09/13 01:39:28;;;;;;;6.55;2.60;;;;;;;;;;5065618;28;20051;-76
2021/09/13 01:41:54;;;;;;;8.93;2.90;;;;;;;;;;5062861;28;20032;-76
2021/09/13 01:44:19;;;;;;;8.57;2.50;;;;;;;;;;5064798;28;20032;-78
2021/09/13 01:46:45;;;;;;;9.23;2.20;;;;;;;;;;5081304;28;20452;-74
2021/09/13 01:49:12;;;;;;;3.95;2.15;;;;;;;;;;5064256;28;20032;-75
2021/09/13 01:51:38;;;;;;;4.32;2.42;;;;;;;;;;5077113;28;20512;-78
2021/09/13 01:54:04;;;;;;;6.70;2.40;;;;;;;;;;5081318;28;20086;-76
2021/09/13 01:56:30;;;;;;;8.43;3.10;;;;;;;;;;5063402;28;20401;-75
2021/09/13 01:58:58;;;;;;;5.03;2.55;;;;;;;;;;5065846;28;20032;-76
2021/09/13 02:01:23;;;;;;;5.95;1.98;;;;;;;;;;5064992;28;20026;-76
2021/09/13 02:03:49;;;;;;;6.28;2.28;;;;;;;;;;5081936;28;20119;-76
2021/09/13 02:06:15;;;;;;;9.07;2.50;;;;;;;;;;5067106;28;20090;-75
2021/09/13 02:08:41;;;;;;;8.65;2.50;;;;;;;;;;5081403;28;20066;-75
2021/09/13 02:11:07;;;;;;;8.13;2.55;;;;;;;;;;5068569;28;20036;-75
2021/09/13 02:13:33;;;;;;;5.05;2.88;;;;;;;;;;5069311;28;20028;-76
2021/09/13 02:15:58;;;;;;;10.77;2.78;;;;;;;;;;5069074;28;20400;-76
2021/09/13 02:18:24;;;;;;;10.00;2.90;;;;;;;;;;5068123;28;20044;-76
2021/09/13 02:20:50;;;;;;;7.32;2.50;;;;;;;;;;5069727;28;20132;-76
2021/09/13 02:23:16;;;;;;;9.30;2.47;;;;;;;;;;5084621;28;20538;-75
2021/09/13 02:25:42;;;;;;;5.60;2.80;;;;;;;;;;5068664;28;20052;-75
2021/09/13 02:28:07;;;;;;;10.77;3.25;;;;;;;;;;5064300;28;20447;-75
2021/09/13 02:30:34;;;;;;;4.82;2.30;;;;;;;;;;5083030;28;20038;-75
2021/09/13 02:32:59;;;;;;;9.70;3.30;;;;;;;;;;5063960;28;20590;-76
2021/09/13 02:35:25;;;;;;;12.07;2.67;;;;;;;;;;5082164;28;20044;-75
2021/09/13 02:37:50;;;;;;;6.80;2.67;;;;;;;;;;5078269;28;20086;-76
2021/09/13 02:40:16;;;;;;;7.10;3.10;;;;;;;;;;5068799;28;20544;-76
2021/09/13 02:42:41;;;;;;;5.03;2.30;;;;;;;;;;5066822;28;20112;-75
2021/09/13 02:45:08;;;;;;;7.13;2.30;;;;;;;;;;5066789;28;20570;-75
2021/09/13 02:47:33;;;;;;;7.75;2.47;;;;;;;;;;5068591;28;20031;-76
2021/09/13 02:49:59;;;;;;;4.88;2.92;;;;;;;;;;5083561;28;20032;-76
2021/09/13 02:52:24;;;;;;;4.60;2.38;;;;;;;;;;5064913;28;20049;-76
2021/09/13 02:54:50;;;;;;;11.55;2.70;;;;;;;;;;5066709;28;20120;-76
2021/09/13 02:57:15;;;;;;;6.45;2.80;;;;;;;;;;5082933;28;20645;-76
2021/09/13 02:59:41;;;;;;;8.02;2.38;;;;;;;;;;5065445;28;20028;-76
2021/09/13 03:02:06;;;;;;;8.95;2.72;;;;;;;;;;5065177;28;20025;-75
2021/09/13 03:04:32;;;;;;;4.70;2.63;;;;;;;;;;5065793;28;20025;-75
2021/09/13 03:06:57;;;;;;;8.90;2.50;;;;;;;;;;5065305;28;20039;-76
2021/09/13 03:09:23;;;;;;;5.35;2.60;;;;;;;;;;5084478;28;20378;-76
2021/09/13 03:11:49;;;;;;;9.65;2.50;;;;;;;;;;5066615;28;20060;-76
2021/09/13 03:14:14;;;;;;;10.80;2.78;;;;;;;;;;5067172;28;20032;-76
2021/09/13 03:16:40;;;;;;;5.78;2.60;;;;;;;;;;5068123;28;20028;-75
2021/09/13 03:19:05;;;;;;;8.73;2.65;;;;;;;;;;5068806;28;20065;-76
2021/09/13 03:21:31;;;;;;;9.45;2.70;;;;;;;;;;5075025;28;20032;-76
2021/09/13 03:23:56;;;;;;;6.35;2.80;;;;;;;;;;5063477;28;20045;-76
2021/09/13 03:26:22;;;;;;;8.63;2.60;;;;;;;;;;5068054;28;20036;-76
2021/09/13 03:28:48;;;;;;;4.10;2.15;;;;;;;;;;5081985;28;20025;-76
2021/09/13 03:31:13;;;;;;;6.47;2.05;;;;;;;;;;5080845;28;20123;-76
2021/09/13 03:33:39;;;;;;;7.28;2.50;;;;;;;;;;5067010;28;20032;-76
2021/09/13 03:36:04;;;;;;;9.63;2.60;;;;;;;;;;5084090;28;20041;-76
2021/09/13 03:38:32;;;;;;;5.68;2.25;;;;;;;;;;5068258;28;20028;-76
2021/09/13 03:40:58;;;;;;;6.35;2.92;;;;;;;;;;5063033;28;20024;-76
2021/09/13 03:43:23;;;;;;;7.40;2.63;;;;;;;;;;5080548;28;20027;-76
2021/09/13 03:45:49;;;;;;;4.32;2.35;;;;;;;;;;5084093;28;20043;-76
2021/09/13 03:48:14;;;;;;;4.78;2.45;;;;;;;;;;5081365;28;20036;-75
2021/09/13 03:50:40;;;;;;;9.48;3.33;;;;;;;;;;5066258;28;20040;-76
2021/09/13 03:53:05;;;;;;;3.20;2.40;;;;;;;;;;5061698;28;20032;-76
2021/09/13 03:55:32;;;;;;;4.70;2.92;;;;;;;;;;5067517;28;20041;-76
2021/09/13 03:57:58;;;;;;;9.50;2.83;;;;;;;;;;5062301;28;20024;-76
2021/09/13 04:00:24;;;;;;;7.00;2.83;;;;;;;;;;5068012;28;20100;-76
2021/09/13 04:02:50;;;;;;;8.02;2.90;;;;;;;;;;5080348;28;20103;-76
2021/09/13 04:05:25;;;;;;;7.72;2.70;;;;;;;;;;5064582;28;20538;-76
2021/09/13 04:10:33;;;;;;;6.47;2.88;;;;;;;;;;5061274;28;20090;-76
2021/09/13 04:12:58;;;;;;;6.10;2.85;;;;;;;;;;5080935;28;20035;-76
2021/09/13 04:15:24;;;;;;;5.53;2.88;;;;;;;;;;5066842;28;20040;-75
2021/09/13 04:17:49;;;;;;;5.82;2.67;;;;;;;;;;5067667;28;20494;-76
2021/09/13 04:20:15;;;;;;;8.00;2.80;;;;;;;;;;5061632;28;20505;-76
2021/09/13 04:22:40;;;;;;;8.98;3.40;;;;;;;;;;5079792;28;20052;-76
2021/09/13 04:25:06;;;;;;;12.25;2.97;;;;;;;;;;5078554;28;20036;-75
2021/09/13 04:27:32;;;;;;;8.95;3.03;;;;;;;;;;5081015;28;20028;-76
2021/09/13 04:29:58;;;;;;;6.68;3.40;;;;;;;;;;5065360;28;20505;-76
2021/09/13 04:32:24;;;;;;;6.55;2.50;;;;;;;;;;5049081;28;20652;-76
2021/09/13 04:34:49;;;;;;;8.60;3.35;;;;;;;;;;5066479;28;20040;-76
2021/09/13 04:37:15;;;;;;;15.30;2.83;;;;;;;;;;5063487;28;20028;-77
2021/09/13 04:39:41;;;;;;;4.78;2.88;;;;;;;;;;5066331;28;20063;-76
2021/09/13 04:42:06;;;;;;;4.93;2.53;;;;;;;;;;5079694;28;20059;-75
2021/09/13 04:44:32;;;;;;;5.20;2.63;;;;;;;;;;5061664;28;20427;-76
2021/09/13 04:46:57;;;;;;;6.90;3.40;;;;;;;;;;5061572;28;20029;-76
2021/09/13 04:49:24;;;;;;;6.53;2.70;;;;;;;;;;5080418;28;20536;-76
2021/09/13 04:51:51;;;;;;;7.10;3.08;;;;;;;;;;5075270;28;20032;-76
2021/09/13 04:54:16;;;;;;;8.75;2.92;;;;;;;;;;5064144;28;20033;-76
2021/09/13 04:56:42;;;;;;;7.35;2.90;;;;;;;;;;5064837;28;20044;-76
2021/09/13 04:59:08;;;;;;;8.13;2.70;;;;;;;;;;5079293;28;20036;-76
2021/09/13 05:01:34;;;;;;;10.32;3.72;;;;;;;;;;5066868;28;20032;-76
2021/09/13 05:04:00;;;;;;;4.40;2.72;;;;;;;;;;5067621;28;20644;-76
2021/09/13 05:06:26;;;;;;;4.45;2.67;;;;;;;;;;5066713;28;20078;-76
2021/09/13 05:08:51;;;;;;;5.13;3.03;;;;;;;;;;5066980;28;20067;-76
2021/09/13 05:11:17;;;;;;;10.27;3.15;;;;;;;;;;5047772;28;20411;-76
2021/09/13 05:13:42;;;;;;;7.60;2.70;;;;;;;;;;5080052;28;20028;-75
2021/09/13 05:16:08;;;;;;;7.47;2.88;;;;;;;;;;5065765;28;20029;-76
2021/09/13 05:18:33;;;;;;;10.93;3.22;;;;;;;;;;5051990;28;20036;-76
2021/09/13 05:20:59;;;;;;;14.93;3.80;;;;;;;;;;5065509;28;20032;-76
2021/09/13 05:23:25;;;;;;;7.28;3.20;;;;;;;;;;5044435;28;20056;-76
2021/09/13 05:25:50;;;;;;;7.43;2.70;;;;;;;;;;5070993;28;20029;-76
2021/09/13 05:28:15;;;;;;;6.97;3.30;;;;;;;;;;5063965;28;20394;-76
2021/09/13 05:30:41;;;;;;;7.70;3.00;;;;;;;;;;5080769;28;20394;-76
2021/09/13 05:33:06;;;;;;;11.88;3.30;;;;;;;;;;5063180;28;20052;-76
2021/09/13 05:35:32;;;;;;;12.60;3.40;;;;;;;;;;5060522;28;20075;-76
2021/09/13 05:37:58;;;;;;;9.93;3.13;;;;;;;;;;5064598;28;20035;-76
2021/09/13 05:40:23;;;;;;;7.20;2.80;;;;;;;;;;5066844;28;20021;-76
2021/09/13 05:42:49;;;;;;;9.13;3.45;;;;;;;;;;5070779;28;20028;-76
2021/09/13 05:45:14;;;;;;;6.47;3.60;;;;;;;;;;5086730;28;20047;-76
2021/09/13 05:47:39;;;;;;;9.13;2.85;;;;;;;;;;5069574;28;20028;-76
2021/09/13 05:50:05;;;;;;;6.60;3.00;;;;;;;;;;5064398;28;20051;-76
2021/09/13 05:52:31;;;;;;;9.13;2.83;;;;;;;;;;5069471;28;20032;-76
2021/09/13 05:54:57;;;;;;;6.90;2.33;;;;;;;;;;5070291;28;20050;-75
2021/09/13 05:57:22;;;;;;;5.65;3.20;;;;;;;;;;5069937;28;20032;-76
2021/09/13 05:59:48;;;;;;;9.85;2.95;;;;;;;;;;5052129;28;20060;-76
2021/09/13 06:02:16;;;;;;;7.50;2.92;;;;;;;;;;5064071;28;20052;-76
2021/09/13 06:04:42;;;;;;;7.90;3.00;;;;;;;;;;5069707;28;20400;-76
2021/09/13 06:07:08;;;;;;;6.07;2.58;;;;;;;;;;5084581;28;20606;-76
2021/09/13 06:09:34;;;;;;;5.90;2.70;;;;;;;;;;5073923;28;20032;-76
2021/09/13 06:11:59;;;;;;;11.85;2.60;;;;;;;;;;5085182;28;20036;-75
2021/09/13 06:14:25;;;;;;;4.82;2.80;;;;;;;;;;5066353;28;20469;-75
2021/09/13 06:16:50;;;;;;;17.13;3.45;;;;;;;;;;5069133;28;20058;-76
2021/09/13 06:19:16;;;;;;;7.70;3.25;;;;;;;;;;5084330;28;20093;-75
2021/09/13 06:21:41;;;;;;;13.60;3.35;;;;;;;;;;5084313;28;20028;-76
2021/09/13 06:24:07;;;;;;;12.70;3.13;;;;;;;;;;5064228;28;20405;-76
2021/09/13 06:26:33;;;;;;;9.05;3.13;;;;;;;;;;5067430;28;20563;-76
2021/09/13 06:28:58;;;;;;;13.32;3.38;;;;;;;;;;5060066;28;20032;-76
2021/09/13 06:31:24;;;;;;;7.25;2.50;;;;;;;;;;5067257;28;20481;-76
2021/09/13 06:33:50;;;;;;;11.95;3.10;;;;;;;;;;5076583;28;20705;-76
2021/09/13 06:36:16;;;;;;;10.98;3.47;;;;;;;;;;5066878;28;20471;-75
2021/09/13 06:38:43;;;;;;;9.10;2.75;;;;;;;;;;5065117;28;20025;-75
2021/09/13 06:41:08;;;;;;;9.50;3.78;;;;;;;;;;5083623;28;20032;-76
2021/09/13 06:43:34;;;;;;;9.48;3.17;;;;;;;;;;5079532;28;20523;-76
2021/09/13 06:46:10;;;;;;;10.50;3.58;;;;;;;;;;5083909;28;20374;-75
2021/09/13 06:48:38;;;;;;;13.85;3.67;;;;;;;;;;5081364;28;20044;-75
2021/09/13 06:51:04;;;;;;;8.77;3.13;;;;;;;;;;5064683;28;20033;-76
2021/09/13 06:53:29;;;;;;;7.93;3.92;;;;;;;;;;5064566;28;20037;-76
2021/09/13 06:55:55;;;;;;;6.18;2.85;;;;;;;;;;5070739;28;20166;-76
2021/09/13 06:58:20;;;;;;;9.13;3.33;;;;;;;;;;5066772;28;20040;-76
2021/09/13 07:00:46;;;;;;;17.33;3.90;;;;;;;;;;5069239;28;20766;-76
2021/09/13 07:03:15;;;;;;;27.85;4.43;;;;;;;;;;5085913;28;20513;-76
2021/09/13 07:05:41;;;;;;;15.35;4.00;;;;;;;;;;5072944;28;20051;-76
2021/09/13 07:08:07;;;;;;;9.95;4.05;;;;;;;;;;5069997;28;20565;-76
2021/09/13 07:10:32;;;;;;;12.43;3.90;;;;;;;;;;5085002;28;20035;-76
2021/09/13 07:12:58;;;;;;;12.88;4.25;;;;;;;;;;5069416;28;20024;-76
2021/09/13 07:15:23;;;;;;;9.63;4.10;;;;;;;;;;5079389;28;20024;-75
2021/09/13 07:17:49;;;;;;;15.65;4.07;;;;;;;;;;5051363;28;20131;-76
2021/09/13 07:20:14;;;;;;;10.85;4.45;;;;;;;;;;5068102;28;20554;-76
2021/09/13 07:22:41;;;;;;;16.13;4.45;;;;;;;;;;5083584;28;20123;-76
2021/09/13 07:25:07;;;;;;;19.77;5.35;;;;;;;;;;5068835;28;20029;-76
2021/09/13 07:27:34;;;;;;;12.18;4.13;;;;;;;;;;5069124;28;20028;-76
2021/09/13 07:30:01;;;;;;;16.52;5.25;;;;;;;;;;5052201;28;20037;-76
2021/09/13 07:32:27;;;;;;;12.52;5.57;;;;;;;;;;5055149;28;20413;-75
2021/09/13 07:34:52;;;;;;;18.45;5.35;;;;;;;;;;5088347;28;20028;-76
2021/09/13 07:37:18;;;;;;;19.48;6.18;;;;;;;;;;5069506;28;20880;-75
2021/09/13 07:39:43;;;;;;;11.88;5.80;;;;;;;;;;5085123;28;20044;-76
2021/09/13 07:42:09;;;;;;;12.35;4.55;;;;;;;;;;5070350;28;20029;-76
2021/09/13 07:44:35;;;;;;;9.07;4.55;;;;;;;;;;5063944;28;20094;-76
2021/09/13 07:47:00;;;;;;;32.97;6.18;;;;;;;;;;5082601;28;20028;-76
2021/09/13 07:49:26;;;;;;;17.52;5.07;;;;;;;;;;5065214;28;20043;-75
2021/09/13 07:51:52;;;;;;;12.07;4.72;;;;;;;;;;5067450;28;20422;-76
2021/09/13 07:54:18;;;;;;;21.73;4.75;;;;;;;;;;5066751;28;20104;-75
2021/09/13 07:56:44;;;;;;;26.90;5.53;;;;;;;;;;5082641;28;20119;-76
2021/09/13 07:59:09;;;;;;;23.27;5.80;;;;;;;;;;5077363;28;20067;-76
2021/09/13 08:01:35;;;;;;;32.47;6.05;;;;;;;;;;5062838;28;20043;-76
2021/09/13 08:04:01;;;;;;;28.13;6.22;;;;;;;;;;5074592;28;20145;-76
2021/09/13 08:06:26;;;;;;;48.38;6.65;;;;;;;;;;5052555;28;20028;-76
2021/09/13 08:08:51;;;;;;;13.85;4.93;;;;;;;;;;5063700;28;20024;-76
2021/09/13 08:11:17;;;;;;;19.98;5.50;;;;;;;;;;5081732;28;20425;-75
2021/09/13 08:13:43;;;;;;;20.58;5.90;;;;;;;;;;5063030;28;20036;-75
2021/09/13 08:16:10;;;;;;;25.38;5.10;;;;;;;;;;5063764;28;20041;-75
2021/09/13 08:18:37;;;;;;;21.13;5.72;;;;;;;;;;5065814;28;20092;-75
2021/09/13 08:21:03;;;;;;;22.40;6.20;;;;;;;;;;5079978;28;20036;-76
2021/09/13 08:23:33;;;;;;;12.77;5.05;;;;;;;;;;5066658;28;20048;-76
2021/09/13 08:25:59;;;;;;;6.53;4.50;;;;;;;;;;5081747;28;20038;-77
2021/09/13 08:28:25;;;;;;;9.70;4.47;;;;;;;;;;5065145;28;20123;-76
2021/09/13 08:30:50;;;;;;;23.20;4.43;;;;;;;;;;5065263;28;20089;-76
2021/09/13 08:33:17;;;;;;;16.60;5.40;;;;;;;;;;5080764;28;20525;-76
2021/09/13 08:35:42;;;;;;;12.32;4.50;;;;;;;;;;5063881;28;20500;-76
2021/09/13 08:38:08;;;;;;;8.10;4.60;;;;;;;;;;5051832;28;20067;-77
2021/09/13 08:40:34;;;;;;;9.35;4.75;;;;;;;;;;5065898;28;20033;-78
2021/09/13 08:43:00;;;;;;;8.75;4.10;;;;;;;;;;5064299;28;20026;-76
2021/09/13 08:45:39;;;;;;;9.93;4.70;;;;;;;;;;5066072;28;20082;-76
2021/09/13 08:51:05;;;;;;;11.93;5.45;;;;;;;;;;5079800;28;20032;-76
2021/09/13 08:53:31;;;;;;;8.70;5.03;;;;;;;;;;5063887;28;20043;-76
2021/09/13 08:55:57;;;;;;;13.48;5.40;;;;;;;;;;5066682;28;20521;-76
2021/09/13 08:58:23;;;;;;;11.35;4.97;;;;;;;;;;5065853;28;20020;-76
2021/09/13 09:00:50;;;;;;;10.98;4.90;;;;;;;;;;5065360;28;20034;-76
2021/09/13 09:03:16;;;;;;;6.28;4.30;;;;;;;;;;5080507;28;20666;-76
2021/09/13 09:05:44;;;;;;;10.32;5.30;;;;;;;;;;5065659;28;20039;-76
2021/09/13 09:08:22;;;;;;;6.35;4.20;;;;;;;;;;5065363;28;20039;-76
2021/09/13 09:11:00;;;;;;;7.63;4.50;;;;;;;;;;5065617;28;20093;-76
2021/09/13 09:13:34;;;;;;;7.95;3.58;;;;;;;;;;5079691;28;20779;-76
2021/09/13 09:16:03;;;;;;;6.50;4.40;;;;;;;;;;5065436;28;20036;-76
2021/09/13 09:18:45;;;;;;;6.50;4.18;;;;;;;;;;5080110;28;20448;-76
2021/09/13 09:21:25;;;;;;;6.53;4.45;;;;;;;;;;5067012;28;20609;-76
2021/09/13 09:24:03;;;;;;;7.05;4.68;;;;;;;;;;5063141;28;20152;-76
2021/09/13 09:26:30;;;;;;;8.95;3.90;;;;;;;;;;5064465;28;20029;-76
2021/09/13 09:28:56;;;;;;;8.98;3.90;;;;;;;;;;5066402;28;20071;-76
2021/09/13 09:31:41;;;;;;;6.75;3.97;;;;;;;;;;5061388;28;20032;-75
2021/09/13 09:34:18;;;;;;;8.77;4.32;;;;;;;;;;5061078;28;20032;-76
2021/09/13 09:37:14;;;;;;;7.35;4.82;;;;;;;;;;5063518;28;20841;-76
2021/09/13 09:39:49;;;;;;;7.22;5.07;;;;;;;;;;5049144;28;20052;-77
2021/09/13 09:42:34;;;;;;;7.03;4.40;;;;;;;;;;5061441;28;20532;-76
2021/09/13 09:45:04;;;;;;;8.60;4.57;;;;;;;;;;5064469;28;20059;-76
2021/09/13 09:47:29;;;;;;;9.90;4.88;;;;;;;;;;5059312;28;20097;-77
2021/09/13 09:49:57;;;;;;;7.53;4.15;;;;;;;;;;5065752;28;20029;-76
2021/09/13 09:52:54;;;;;;;6.85;4.40;;;;;;;;;;5077404;28;20024;-76
2021/09/13 09:55:23;;;;;;;7.03;3.90;;;;;;;;;;5059183;28;20094;-76
2021/09/13 09:58:06;;;;;;;5.25;4.28;;;;;;;;;;5064179;28;20025;-77
2021/09/13 10:00:32;;;;;;;9.50;4.25;;;;;;;;;;5073220;28;20057;-77
2021/09/13 10:02:58;;;;;;;6.78;4.70;;;;;;;;;;5079863;28;20401;-77
2021/09/13 10:05:29;;;;;;;12.48;4.07;;;;;;;;;;5049739;28;20036;-77
2021/09/13 10:07:55;;;;;;;8.93;4.78;;;;;;;;;;5048614;28;20027;-77
2021/09/13 10:10:24;;;;;;;6.65;4.05;;;;;;;;;;5059603;28;20025;-78
2021/09/13 10:12:49;;;;;;;13.38;4.28;;;;;;;;;;5081992;28;20021;-77
2021/09/13 10:15:16;;;;;;;13.80;5.35;;;;;;;;;;5063596;28;20033;-76
2021/09/13 10:17:42;;;;;;;10.88;3.67;;;;;;;;;;5059750;28;20047;-77
2021/09/13 10:20:09;;;;;;;18.85;3.85;;;;;;;;;;5059748;28;20033;-76
2021/09/13 10:22:41;;;;;;;6.88;3.65;;;;;;;;;;5061317;28;20045;-76
2021/09/13 10:25:08;;;;;;;7.97;3.72;;;;;;;;;;5068836;28;20032;-76
2021/09/13 10:27:40;;;;;;;5.95;3.17;;;;;;;;;;5068170;28;20032;-76
2021/09/13 10:30:18;;;;;;;4.85;3.10;;;;;;;;;;5067150;28;20033;-77
2021/09/13 10:33:10;;;;;;;7.65;4.32;;;;;;;;;;5068452;28;20032;-77
2021/09/13 10:35:55;;;;;;;;;;;;;;;;;;5065789;28;20024;-76
2021/09/13 10:38:39;;;;;;;5.15;2.92;;;;;;;;;;5069327;28;19923;-76
2021/09/13 10:41:04;;;;;;;4.35;2.92;;;;;;;;;;5078962;28;20031;-77
2021/09/13 10:43:30;;;;;;;6.60;3.55;;;;;;;;;;5069535;28;20032;-76
2021/09/13 10:45:55;;;;;;;6.10;3.35;;;;;;;;;;5068002;28;20025;-76
2021/09/13 10:48:21;;;;;;;4.18;3.15;;;;;;;;;;5067247;28;20616;-76
2021/09/13 10:50:52;;;;;;;3.38;2.70;;;;;;;;;;5084937;28;20025;-76
2021/09/13 10:53:18;;;;;;;4.53;2.55;;;;;;;;;;5084881;28;20098;-76
2021/09/13 10:55:44;;;;;;;5.82;2.80;;;;;;;;;;5082504;28;20025;-76
2021/09/13 10:58:14;;;;;;;3.42;2.63;;;;;;;;;;5068301;28;20028;-76
2021/09/13 11:00:42;;;;;;;4.78;2.45;;;;;;;;;;5068867;28;20039;-76
2021/09/13 11:06:13;;;;;;;6.03;3.08;;;;;;;;;;5064439;28;20128;-76
2021/09/13 11:08:43;;;;;;;9.35;2.95;;;;;;;;;;5062926;28;20057;-76
2021/09/13 11:11:18;;;;;;;9.50;3.28;;;;;;;;;;5068729;28;20031;-76
2021/09/13 11:13:45;;;;;;;10.13;2.88;;;;;;;;;;5067684;28;20025;-75
2021/09/13 11:16:16;;;;;;;11.43;2.55;;;;;;;;;;5065639;28;20032;-75
2021/09/13 11:18:43;;;;;;;5.28;2.80;;;;;;;;;;5072187;28;20033;-76
2021/09/13 11:21:30;;;;;;;5.28;2.40;;;;;;;;;;5085225;28;20742;-76
2021/09/13 11:23:55;;;;;;;4.55;2.38;;;;;;;;;;5068546;28;20064;-78
2021/09/13 11:26:58;;;;;;;3.95;2.20;;;;;;;;;;5068137;28;20101;-76
2021/09/13 11:29:25;;;;;;;;;;;;;;;;;;5044368;28;20455;-76
2021/09/13 11:31:51;;;;;;;3.65;1.98;;;;;;;;;;5063056;28;19924;-78
2021/09/13 11:34:17;;;;;;;3.15;1.75;;;;;;;;;;5067835;28;20111;-79
2021/09/13 11:37:02;;;;;;;2.40;1.85;;;;;;;;;;5064143;28;20111;-76
2021/09/13 11:39:31;;;;;;;2.38;1.60;;;;;;;;;;5063175;28;20039;-76
2021/09/13 11:42:03;;;;;;;10.50;2.97;;;;;;;;;;5064337;28;20036;-76
2021/09/13 11:44:35;;;;;;;5.90;2.70;;;;;;;;;;5065764;28;20054;-77
2021/09/13 11:47:03;;;;;;;;;;;;;;;;;;5064506;28;20032;-76
2021/09/13 11:49:31;;;;;;;8.75;2.55;;;;;;;;;;5064548;28;19916;-76
2021/09/13 11:52:12;;;;;;;6.28;2.40;;;;;;;;;;5063917;28;20024;-76
2021/09/13 11:54:51;;;;;;;5.18;3.22;;;;;;;;;;5081483;28;20070;-76
2021/09/13 11:57:26;;;;;;;2.90;2.15;;;;;;;;;;5060929;28;20020;-76
2021/09/13 11:59:54;;;;;;;5.07;2.67;;;;;;;;;;5064271;28;20029;-75
2021/09/13 12:02:20;;;;;;;4.07;1.90;;;;;;;;;;5063566;28;20032;-77
2021/09/13 12:04:46;;;;;;;2.97;2.13;;;;;;;;;;5065277;28;20025;-76
2021/09/13 12:07:12;;;;;;;2.28;1.73;;;;;;;;;;5047710;28;20028;-76
2021/09/13 12:09:41;;;;;;;6.43;2.20;;;;;;;;;;5064897;28;20508;-77
2021/09/13 12:12:07;;;;;;;6.18;2.65;;;;;;;;;;5084210;28;20035;-75
2021/09/13 12:14:37;;;;;;;7.00;1.92;;;;;;;;;;5068157;28;20035;-75
2021/09/13 12:17:08;;;;;;;6.10;2.50;;;;;;;;;;5066280;28;20035;-75
2021/09/13 12:19:38;;;;;;;7.53;3.85;;;;;;;;;;5064084;28;20035;-76
2021/09/13 12:22:05;;;;;;;5.25;1.95;;;;;;;;;;5061699;28;20378;-75
2021/09/13 12:24:31;;;;;;;6.45;2.28;;;;;;;;;;5073941;28;20090;-76
2021/09/13 12:27:11;;;;;;;8.15;2.47;;;;;;;;;;5079285;28;20440;-75
2021/09/13 12:30:01;;;;;;;6.82;2.60;;;;;;;;;;5062987;28;20032;-75
2021/09/13 12:32:33;;;;;;;3.03;2.03;;;;;;;;;;5065999;28;20124;-76
2021/09/13 12:35:02;;;;;;;3.63;1.88;;;;;;;;;;5064656;28;20025;-75
2021/09/13 12:37:30;;;;;;;2.40;1.95;;;;;;;;;;5063460;28;20024;-75
2021/09/13 12:40:00;;;;;;;7.53;2.28;;;;;;;;;;5080367;28;20037;-75
2021/09/13 12:42:26;;;;;;;4.43;2.10;;;;;;;;;;5082055;28;20032;-75
2021/09/13 12:45:03;;;;;;;9.52;2.60;;;;;;;;;;5063586;28;20539;-76
2021/09/13 12:47:28;;;;;;;4.38;2.05;;;;;;;;;;5061244;28;20418;-75
2021/09/13 12:49:54;;;;;;;4.28;2.33;;;;;;;;;;5083711;28;20039;-77
2021/09/13 12:52:20;;;;;;;4.60;2.53;;;;;;;;;;5066560;28;20127;-77
2021/09/13 12:54:46;;;;;;;2.72;1.98;;;;;;;;;;5065143;28;20021;-77
2021/09/13 12:57:11;;;;;;;3.83;2.00;;;;;;;;;;5059003;28;20394;-77
2021/09/13 12:59:37;;;;;;;2.53;1.83;;;;;;;;;;5056260;28;20426;-76
2021/09/13 13:02:14;;;;;;;2.50;1.73;;;;;;;;;;5052583;28;20104;-76
2021/09/13 13:04:39;;;;;;;2.15;1.60;;;;;;;;;;5079330;28;20025;-75
2021/09/13 13:07:12;;;;;;;4.80;1.85;;;;;;;;;;5063846;28;20036;-76
2021/09/13 13:09:38;;;;;;;3.38;1.55;;;;;;;;;;5064340;28;20094;-75
2021/09/13 13:12:04;;;;;;;5.22;1.73;;;;;;;;;;5064912;28;20025;-76
2021/09/13 13:14:29;;;;;;;4.32;1.48;;;;;;;;;;5066022;28;20454;-76
2021/09/13 13:16:55;;;;;;;1.60;1.00;;;;;;;;;;5066774;28;20032;-77
2021/09/13 13:19:20;;;;;;;3.85;0.90;;;;;;;;;;5065849;28;20047;-75
2021/09/13 13:21:47;;;;;;;2.10;0.60;;;;;;;;;;5057514;28;20033;-76
2021/09/13 13:24:19;;;;;;;1.83;0.70;;;;;;;;;;5062933;28;20053;-75
2021/09/13 13:26:47;;;;;;;2.00;0.98;;;;;;;;;;5065949;28;20037;-75
2021/09/13 13:29:13;;;;;;;0.77;0.73;;;;;;;;;;5064849;28;20445;-75
2021/09/13 13:31:39;;;;;;;1.05;0.73;;;;;;;;;;5080791;28;20198;-76
2021/09/13 13:34:09;;;;;;;1.67;0.80;;;;;;;;;;5066381;28;20723;-75
2021/09/13 13:36:36;;;;;;;3.28;0.60;;;;;;;;;;5065436;28;20044;-75
2021/09/13 13:39:03;;;;;;;2.33;0.55;;;;;;;;;;5067643;28;20130;-75
2021/09/13 13:41:28;;;;;;;2.70;0.95;;;;;;;;;;5066298;28;20489;-75
2021/09/13 13:43:54;;;;;;;2.50;0.98;;;;;;;;;;5065282;28;20051;-76
2021/09/13 13:46:19;;;;;;;1.45;1.05;;;;;;;;;;5056706;28;20040;-77
2021/09/13 13:48:45;;;;;;;1.40;1.13;;;;;;;;;;5065181;28;20035;-76
2021/09/13 13:51:10;;;;;;;1.95;0.90;;;;;;;;;;5060893;28;20036;-75
2021/09/13 13:53:36;;;;;;;3.05;1.10;;;;;;;;;;5080163;28;20021;-75
2021/09/13 13:56:01;;;;;;;2.53;1.00;;;;;;;;;;5065586;28;20060;-75
2021/09/13 13:58:27;;;;;;;2.90;1.08;;;;;;;;;;5049329;28;21022;-75
2021/09/13 14:00:55;;;;;;;3.33;1.00;;;;;;;;;;5085427;28;20032;-76
2021/09/13 14:03:21;;;;;;;3.90;1.40;;;;;;;;;;5069023;28;20052;-75
2021/09/13 14:05:46;;;;;;;3.15;1.00;;;;;;;;;;5086559;28;20063;-76
2021/09/13 14:08:12;;;;;;;5.95;1.60;;;;;;;;;;5060738;28;20132;-75
2021/09/13 14:10:39;;;;;;;2.97;1.45;;;;;;;;;;5071895;28;20998;-75
2021/09/13 14:13:04;;;;;;;3.80;1.35;;;;;;;;;;5068026;28;20035;-75
2021/09/13 14:15:30;;;;;;;2.95;1.25;;;;;;;;;;5057809;28;20267;-76
2021/09/13 14:17:56;;;;;;;1.98;1.00;;;;;;;;;;5072518;28;20115;-78
2021/09/13 14:20:22;;;;;;;4.00;0.90;;;;;;;;;;5069733;28;20545;-80
2021/09/13 14:22:47;;;;;;;3.78;1.02;;;;;;;;;;5066214;28;20057;-76
2021/09/13 14:25:13;;;;;;;1.50;0.90;;;;;;;;;;5081579;28;20072;-76
2021/09/13 14:27:39;;;;;;;2.28;0.98;;;;;;;;;;5083096;28;20119;-76
2021/09/13 14:30:06;;;;;;;0.98;0.80;;;;;;;;;;5085388;28;20115;-76
2021/09/13 14:32:31;;;;;;;4.07;0.90;;;;;;;;;;5052166;28;20098;-75
2021/09/13 14:34:57;;;;;;;2.15;0.90;;;;;;;;;;5058982;28;20028;-76
2021/09/13 14:37:23;;;;;;;1.98;1.13;;;;;;;;;;5078970;28;20025;-76
2021/09/13 14:39:48;;;;;;;4.70;1.23;;;;;;;;;;5084762;28;20024;-76
2021/09/13 14:42:14;;;;;;;1.65;1.38;;;;;;;;;;5064536;28;20637;-76
2021/09/13 14:44:39;;;;;;;3.35;1.60;;;;;;;;;;5068258;28;20032;-77
2021/09/13 14:47:07;;;;;;;6.93;2.15;;;;;;;;;;5085356;28;20039;-76
2021/09/13 14:49:33;;;;;;;4.90;2.05;;;;;;;;;;5071107;28;20193;-77
2021/09/13 14:51:58;;;;;;;5.60;1.92;;;;;;;;;;5070698;28;20069;-76